Gundem Azra — 3FFS5 — position and weather

sailwx.info

Track history (hours):
 
Tides and Currents Weather Stations Pressure Air Temp Water Temp Dewpoint Dewpoint Depression Visibility Wind Speed Wind Dir Waves Ship Positions

Gundem Azra

Last reported at 2018-Jan-20 11:59 UTC. Time now 2018-Jan-20 15:31 UTC.
Position N 36°27' E 023°51'.

Length 94 m; draft 6.5 m.

Type: Ship. MMSI: 352672000.

Date/timePositionNaut miles runAvg speedWind from/ knotsBaromVisibWave heightAir tempDewpointWater temp
2018-Jan-20 11:59N 36°27' E 023°51'4 9.0
2018-Jan-20 11:30N 36°28' E 023°56'4 8.8
2018-Jan-20 11:00N 36°28' E 024°02'5 9.0
2018-Jan-20 10:29N 36°28' E 024°08'4 8.9
2018-Jan-20 10:00N 36°29' E 024°13'5 9.1
2018-Jan-20 09:27N 36°29' E 024°19'4 9.2
2018-Jan-20 09:00N 36°29' E 024°24'5 9.2
2018-Jan-20 08:30N 36°30' E 024°30'5 9.2
2018-Jan-20 08:00N 36°30' E 024°36'5 8.8
2018-Jan-20 07:29N 36°30' E 024°41'4 9.1
2018-Jan-20 07:00N 36°31' E 024°47'5 9.2
2018-Jan-20 06:30N 36°31' E 024°53'4 8.9
2018-Jan-20 06:00N 36°31' E 024°58'4 8.6
2018-Jan-20 05:30N 36°31' E 025°03'4 7.4
2018-Jan-20 05:00N 36°32' E 025°08'4 8.8
2018-Jan-20 04:30N 36°32' E 025°13'5 9.0
2018-Jan-20 04:00N 36°33' E 025°19'4 9.0
2018-Jan-20 03:30N 36°34' E 025°24'5 9.3
2018-Jan-20 02:59N 36°36' E 025°30'5 9.6
2018-Jan-20 02:30N 36°38' E 025°35'5 9.9
2018-Jan-20 02:00N 36°40' E 025°41'510.3
2018-Jan-20 01:30N 36°42' E 025°47'510.0
2018-Jan-20 01:00N 36°44' E 025°52'510.0
2018-Jan-20 00:30N 36°46' E 025°58'510.0
2018-Jan-20 00:00N 36°48' E 026°04'610.1
2018-Jan-19 23:26N 36°50' E 026°10'410.5
2018-Jan-19 23:00N 36°52' E 026°15'510.3
2018-Jan-19 22:30N 36°54' E 026°21'510.5
2018-Jan-19 22:00N 36°56' E 026°27'610.2
2018-Jan-19 21:23N 36°59' E 026°34'410.5
2018-Jan-19 21:00N 37°03' E 026°37'610.7
2018-Jan-19 20:28N 37°08' E 026°40'511.0
2018-Jan-19 20:00N 37°12' E 026°44'  
Track history (hours):
 
Tides and Currents Weather Stations Pressure Air Temp Water Temp Dewpoint Dewpoint Depression Visibility Wind Speed Wind Dir Waves Ship Positions

Gundem Azra

Last reported at 2018-Jan-20 11:59 UTC. Time now 2018-Jan-20 15:31 UTC.
Position N 36°27' E 023°51'.

Length 94 m; draft 6.5 m.

Type: Ship. MMSI: 352672000.

Date/timePositionNaut miles runAvg speedWind from/ knotsBaromVisibWave heightAir tempDewpointWater temp
2018-Jan-20 11:59N 36°27' E 023°51'4 9.0
2018-Jan-20 11:30N 36°28' E 023°56'4 8.8
2018-Jan-20 11:00N 36°28' E 024°02'5 9.0
2018-Jan-20 10:29N 36°28' E 024°08'4 8.9
2018-Jan-20 10:00N 36°29' E 024°13'5 9.1
2018-Jan-20 09:27N 36°29' E 024°19'4 9.2
2018-Jan-20 09:00N 36°29' E 024°24'5 9.2
2018-Jan-20 08:30N 36°30' E 024°30'5 9.2
2018-Jan-20 08:00N 36°30' E 024°36'5 8.8
2018-Jan-20 07:29N 36°30' E 024°41'4 9.1
2018-Jan-20 07:00N 36°31' E 024°47'5 9.2
2018-Jan-20 06:30N 36°31' E 024°53'4 8.9
2018-Jan-20 06:00N 36°31' E 024°58'4 8.6
2018-Jan-20 05:30N 36°31' E 025°03'4 7.4
2018-Jan-20 05:00N 36°32' E 025°08'4 8.8
2018-Jan-20 04:30N 36°32' E 025°13'5 9.0
2018-Jan-20 04:00N 36°33' E 025°19'4 9.0
2018-Jan-20 03:30N 36°34' E 025°24'5 9.3
2018-Jan-20 02:59N 36°36' E 025°30'5 9.6
2018-Jan-20 02:30N 36°38' E 025°35'5 9.9
2018-Jan-20 02:00N 36°40' E 025°41'510.3
2018-Jan-20 01:30N 36°42' E 025°47'510.0
2018-Jan-20 01:00N 36°44' E 025°52'510.0
2018-Jan-20 00:30N 36°46' E 025°58'510.0
2018-Jan-20 00:00N 36°48' E 026°04'610.1
2018-Jan-19 23:26N 36°50' E 026°10'410.5
2018-Jan-19 23:00N 36°52' E 026°15'510.3
2018-Jan-19 22:30N 36°54' E 026°21'510.5
2018-Jan-19 22:00N 36°56' E 026°27'610.2
2018-Jan-19 21:23N 36°59' E 026°34'410.5
2018-Jan-19 21:00N 37°03' E 026°37'610.7
2018-Jan-19 20:28N 37°08' E 026°40'511.0
2018-Jan-19 20:00N 37°12' E 026°44'  

Dump ship's entire track history